Annapolis, Maryland
Current Conditions -  °F | °C
As of 2:54 PM on Monday 22 Dec 2014 (Local Time) from KNAK Reporting Station
Light Rain Light Rain  
Wind Chill: -2°   Ceiling: 4500
Heat Index:   Visibility: 2.5mi
Dew Point:   Wind: 8mph
Humidity: 92%   Direction: 20°NNE
Pressure: 30.18"   Gusts: NA
Location:  38.98°N, 76.49°W
Report Text: KNAK 221954Z AUTO 02007KT 2 1/2SM -RA BR SCT024 OVC045 02/01 A3018 RMK AO2 UPB40E45 SLP220 P0001 T00170006
Loading
Personal Weather Stations






























Interactive Weather Map New forecast layout! Learn more

10-Day Weather Forecast

Advertisements
Track Severe Weather on mobile